createdAt,value
2023-04-12T00:00:12.160Z,85.77
2023-04-12T00:05:14.400Z,85.67
2023-04-12T00:10:16.532Z,85.77
2023-04-12T00:15:18.433Z,85.78
2023-04-12T00:20:20.427Z,85.65
2023-04-12T00:25:22.364Z,85.72
2023-04-12T00:30:24.554Z,85.60
2023-04-12T00:35:26.474Z,85.41
2023-04-12T00:40:28.437Z,85.48
2023-04-12T00:45:32.157Z,85.34
2023-04-12T00:50:37.298Z,85.43
2023-04-12T00:55:42.158Z,85.39
2023-04-12T01:00:50.129Z,85.41
2023-04-12T01:06:32.277Z,85.31
2023-04-12T01:12:08.911Z,85.14
2023-04-12T01:17:21.103Z,85.15
2023-04-12T01:22:33.488Z,85.01
2023-04-12T01:27:42.365Z,85.02
2023-04-12T01:32:47.837Z,84.85
2023-04-12T01:37:49.934Z,84.72
2023-04-12T01:42:52.143Z,84.64
2023-04-12T01:47:56.425Z,84.75
2023-04-12T01:53:18.546Z,84.69
2023-04-12T01:58:22.392Z,84.81
2023-04-12T02:03:24.819Z,84.72
2023-04-12T02:08:27.126Z,84.64
2023-04-12T02:13:29.208Z,84.72
2023-04-12T02:18:31.447Z,84.75
2023-04-12T02:23:33.699Z,84.79
2023-04-12T02:28:37.390Z,84.66
2023-04-12T02:33:41.335Z,84.78
2023-04-12T02:38:44.291Z,84.74
2023-04-12T02:43:46.965Z,84.71
2023-04-12T02:48:49.359Z,84.46
2023-04-12T02:53:52.808Z,84.50
2023-04-12T02:58:57.689Z,84.38
2023-04-12T03:04:11.231Z,84.34
2023-04-12T03:09:20.512Z,84.46
2023-04-12T03:14:22.597Z,84.54
2023-04-12T03:19:24.956Z,84.30
2023-04-12T03:24:30.041Z,84.33
2023-04-12T03:29:32.434Z,84.40
2023-04-12T03:34:35.558Z,84.40
2023-04-12T03:39:47.896Z,84.47
2023-04-12T03:44:54.018Z,84.44
2023-04-12T03:55:09.840Z,84.52
2023-04-12T04:00:13.880Z,84.46
2023-04-12T04:05:33.557Z,84.16
2023-04-12T04:10:36.390Z,84.44
2023-04-12T04:15:38.795Z,84.46
2023-04-12T04:20:40.608Z,84.44
2023-04-12T04:25:45.018Z,84.52
2023-04-12T04:30:48.617Z,84.60
2023-04-12T04:35:52.403Z,84.62
2023-04-12T04:40:59.873Z,84.61
2023-04-12T04:46:08.118Z,84.47
2023-04-12T04:51:10.218Z,84.19
2023-04-12T04:56:12.395Z,84.04
2023-04-12T05:01:16.946Z,84.09
2023-04-12T05:06:20.044Z,84.27
2023-04-12T05:11:22.076Z,84.21
2023-04-12T05:16:24.733Z,84.23
2023-04-12T05:21:27.325Z,84.24
2023-04-12T05:26:29.439Z,83.89
2023-04-12T05:31:33.045Z,84.15
2023-04-12T05:36:37.874Z,83.95
2023-04-12T05:41:39.636Z,83.52
2023-04-12T05:46:41.700Z,83.63
2023-04-12T05:51:43.750Z,83.82
2023-04-12T05:56:57.293Z,83.65
2023-04-12T06:02:00.721Z,83.33
2023-04-12T06:07:05.649Z,83.23
2023-04-12T06:12:07.471Z,83.60
2023-04-12T06:17:11.374Z,83.28
2023-04-12T06:22:15.717Z,82.89
2023-04-12T06:27:20.685Z,82.76
2023-04-12T06:32:23.013Z,82.47
2023-04-12T06:37:27.065Z,82.04
2023-04-12T06:42:28.834Z,81.97
2023-04-12T06:47:32.331Z,81.87
2023-04-12T06:52:34.234Z,82.13
2023-04-12T06:57:36.186Z,82.12
2023-04-12T07:02:39.058Z,82.31
2023-04-12T07:07:41.251Z,81.85
2023-04-12T07:12:43.028Z,82.20
2023-04-12T07:17:45.368Z,82.39
2023-04-12T07:22:47.217Z,82.57
2023-04-12T07:27:51.568Z,82.27
2023-04-12T07:32:58.434Z,81.81
2023-04-12T07:38:04.644Z,81.09
2023-04-12T07:43:06.497Z,81.50
2023-04-12T07:48:08.588Z,81.32
2023-04-12T07:53:22.302Z,80.62
2023-04-12T07:58:25.059Z,79.83
2023-04-12T08:03:27.288Z,79.94
2023-04-12T08:08:29.516Z,80.08
2023-04-12T08:13:31.498Z,78.89
2023-04-12T08:18:33.548Z,78.69
2023-04-12T08:23:35.376Z,78.42
2023-04-12T08:28:39.710Z,78.38
2023-04-12T08:33:41.835Z,79.01
2023-04-12T08:38:46.057Z,78.38
2023-04-12T08:43:48.900Z,76.87
2023-04-12T08:48:56.241Z,74.67
2023-04-12T08:53:59.364Z,74.10
2023-04-12T08:59:03.044Z,73.73
2023-04-12T09:04:08.311Z,74.06
2023-04-12T09:09:11.221Z,73.42
2023-04-12T09:14:24.075Z,72.93
2023-04-12T09:19:41.141Z,73.67
2023-04-12T09:24:50.614Z,73.38
2023-04-12T09:30:06.975Z,73.10
2023-04-12T09:35:09.783Z,71.62
2023-04-12T09:40:13.053Z,69.76
2023-04-12T09:45:24.409Z,69.53
2023-04-12T09:50:33.639Z,69.19
2023-04-12T09:55:35.910Z,69.24
2023-04-12T10:00:38.648Z,68.68
2023-04-12T10:05:42.355Z,67.46
2023-04-12T10:10:46.481Z,67.11
2023-04-12T10:15:51.033Z,66.81
2023-04-12T10:20:53.650Z,66.54
2023-04-12T10:25:57.112Z,65.92
2023-04-12T10:31:00.747Z,63.19
2023-04-12T10:36:06.911Z,63.30
2023-04-12T10:41:16.447Z,62.97
2023-04-12T10:46:40.257Z,63.46
2023-04-12T10:52:21.260Z,62.89
2023-04-12T11:03:08.916Z,62.95
2023-04-12T11:08:12.290Z,63.21
2023-04-12T11:13:15.010Z,63.47
2023-04-12T11:18:17.617Z,63.40
2023-04-12T11:23:19.789Z,62.88
2023-04-12T11:28:28.717Z,62.17
2023-04-12T11:33:39.816Z,61.73
2023-04-12T11:38:41.897Z,62.50
2023-04-12T11:43:45.350Z,61.88
2023-04-12T11:48:47.248Z,61.93
2023-04-12T11:53:53.789Z,62.13
2023-04-12T11:58:55.892Z,61.42
2023-04-12T12:04:02.737Z,61.58
2023-04-12T12:09:06.213Z,61.66
2023-04-12T12:14:08.613Z,61.35
2023-04-12T12:19:10.535Z,61.35
2023-04-12T12:24:14.827Z,61.21
2023-04-12T12:29:22.062Z,60.27
2023-04-12T12:34:24.767Z,60.21
2023-04-12T12:39:26.909Z,59.83
2023-04-12T12:44:29.346Z,59.72
2023-04-12T12:49:31.359Z,59.29
2023-04-12T12:54:41.159Z,59.09
2023-04-12T12:59:44.208Z,59.66
2023-04-12T13:04:47.262Z,59.31
2023-04-12T13:09:49.749Z,59.18
2023-04-12T13:14:57.910Z,59.33
2023-04-12T13:20:07.046Z,59.62
2023-04-12T13:25:10.003Z,59.57
2023-04-12T13:30:12.003Z,59.37
2023-04-12T13:35:14.814Z,58.81
2023-04-12T13:40:17.182Z,58.59
2023-04-12T13:45:19.104Z,58.75
2023-04-12T13:50:21.027Z,58.56
2023-04-12T13:55:23.130Z,57.75
2023-04-12T14:00:25.170Z,58.40
2023-04-12T14:05:27.455Z,58.73
2023-04-12T14:10:29.402Z,58.64
2023-04-12T14:15:31.307Z,58.40
2023-04-12T14:20:33.143Z,58.46
2023-04-12T14:25:37.549Z,58.63
2023-04-12T14:30:39.377Z,58.12
2023-04-12T14:35:41.516Z,58.46
2023-04-12T14:40:43.785Z,58.61
2023-04-12T14:45:45.747Z,58.28
2023-04-12T14:50:47.927Z,58.35
2023-04-12T14:55:49.834Z,58.53
2023-04-12T15:00:51.763Z,58.00
2023-04-12T15:05:54.170Z,57.92
2023-04-12T15:10:56.069Z,57.84
2023-04-12T15:15:58.785Z,58.17
2023-04-12T15:21:03.086Z,57.81
2023-04-12T15:26:09.189Z,57.25
2023-04-12T15:31:12.052Z,56.66
2023-04-12T15:36:16.873Z,55.97
2023-04-12T15:41:19.262Z,55.34
2023-04-12T15:46:21.635Z,55.01
2023-04-12T15:51:24.115Z,55.61
2023-04-12T15:56:26.505Z,54.91
2023-04-12T16:01:28.662Z,54.82
2023-04-12T16:06:34.764Z,54.66
2023-04-12T16:11:36.682Z,54.88
2023-04-12T16:16:40.484Z,55.24
2023-04-12T16:21:44.577Z,55.27
2023-04-12T16:26:48.108Z,55.62
2023-04-12T16:31:51.757Z,56.08
2023-04-12T16:36:53.934Z,55.60
2023-04-12T16:41:56.178Z,54.73
2023-04-12T16:46:58.295Z,55.16
2023-04-12T16:52:01.515Z,55.04
2023-04-12T16:57:04.161Z,55.19
2023-04-12T17:02:07.852Z,55.64
2023-04-12T17:07:11.185Z,56.06
2023-04-12T17:12:13.037Z,56.45
2023-04-12T17:17:15.518Z,56.77
2023-04-12T17:22:19.330Z,57.48
2023-04-12T17:27:22.247Z,57.90
2023-04-12T17:32:24.128Z,58.07
2023-04-12T17:37:27.877Z,58.92
2023-04-12T17:42:30.047Z,59.51
2023-04-12T17:47:35.703Z,59.75
2023-04-12T17:52:37.904Z,60.14
2023-04-12T17:57:42.180Z,60.10
2023-04-12T18:02:46.176Z,60.47
2023-04-12T18:07:48.763Z,60.43
2023-04-12T18:12:51.149Z,60.97
2023-04-12T18:17:53.375Z,61.51
2023-04-12T18:22:55.300Z,61.60
2023-04-12T18:27:57.576Z,61.83
2023-04-12T18:33:00.984Z,62.26
2023-04-12T18:38:05.237Z,62.29
2023-04-12T18:43:08.210Z,62.41
2023-04-12T18:48:10.896Z,63.09
2023-04-12T18:53:13.030Z,63.46
2023-04-12T18:58:16.572Z,63.96
2023-04-12T19:03:18.951Z,64.04
2023-04-12T19:08:22.605Z,64.57
2023-04-12T19:13:24.563Z,64.45
2023-04-12T19:18:30.288Z,64.59
2023-04-12T19:23:35.304Z,65.01
2023-04-12T19:28:38.023Z,65.21
2023-04-12T19:33:41.528Z,65.31
2023-04-12T19:38:44.243Z,65.58
2023-04-12T19:43:48.243Z,65.76
2023-04-12T19:48:51.387Z,66.38
2023-04-12T19:53:54.881Z,66.30
2023-04-12T19:58:58.147Z,66.96
2023-04-12T20:04:00.334Z,67.14
2023-04-12T20:09:02.883Z,67.80
2023-04-12T20:14:08.365Z,67.95
2023-04-12T20:19:10.419Z,68.46
2023-04-12T20:24:12.924Z,68.40
2023-04-12T20:29:16.365Z,68.86
2023-04-12T20:34:19.293Z,69.37
2023-04-12T20:39:23.235Z,69.55
2023-04-12T20:44:27.905Z,69.76
2023-04-12T20:49:31.193Z,70.05
2023-04-12T20:54:34.202Z,70.70
2023-04-12T20:59:36.296Z,70.99
2023-04-12T21:04:41.308Z,71.71
2023-04-12T21:09:44.375Z,71.92
2023-04-12T21:15:11.850Z,72.11
2023-04-12T21:20:14.087Z,72.43
2023-04-12T21:25:17.139Z,72.27
2023-04-12T21:30:19.169Z,72.18
2023-04-12T21:35:26.308Z,72.40
2023-04-12T21:40:28.689Z,72.84
2023-04-12T21:45:50.693Z,73.34
2023-04-12T21:50:54.545Z,73.45
2023-04-12T21:55:57.232Z,73.63
2023-04-12T22:00:59.264Z,73.91
2023-04-12T22:06:04.766Z,74.41
2023-04-12T22:11:07.593Z,74.71
2023-04-12T22:16:13.950Z,74.44
2023-04-12T22:21:16.596Z,74.95
2023-04-12T22:26:18.431Z,75.21
2023-04-12T22:31:22.960Z,75.94
2023-04-12T22:36:28.636Z,75.68
2023-04-12T22:41:32.983Z,75.60
2023-04-12T22:46:39.405Z,75.74
2023-04-12T22:51:42.766Z,75.91
2023-04-12T22:56:47.774Z,76.01
2023-04-12T23:01:50.362Z,76.24
2023-04-12T23:06:56.899Z,76.36
2023-04-12T23:12:00.246Z,76.60
2023-04-12T23:17:03.437Z,76.90
2023-04-12T23:22:06.208Z,76.99
2023-04-12T23:27:07.991Z,77.12
2023-04-12T23:32:10.489Z,77.50
2023-04-12T23:37:12.775Z,77.32
2023-04-12T23:42:23.687Z,77.56
2023-04-12T23:47:26.066Z,77.59
2023-04-12T23:52:48.465Z,77.90
2023-04-12T23:57:50.310Z,77.93
